TimeEDT,TemperatureF,Dew PointF,Humidity,Sea Level PressureIn,VisibilityMPH,Wind Direction,Wind SpeedMPH,Gust SpeedMPH,PrecipitationIn,Events,Conditions,WindDirDegrees,DateUTC
12:05 AM,62.6,59.0,88,29.90,2.5,SSW,9.2,-,0.03,Rain,Rain,210,2012-10-14 04:05:00
12:10 AM,62.6,59.0,88,29.90,3.0,SW,6.9,-,0.03,Rain,Light Rain,220,2012-10-14 04:10:00
1:53 AM,62.1,60.1,93,29.88,5.0,SSW,8.1,-,N/A,,Overcast,200,2012-10-14 05:53:00
2:07 AM,62.6,60.8,94,29.87,4.0,SSW,8.1,-,N/A,,Overcast,210,2012-10-14 06:07:00
2:53 AM,64.0,61.0,90,29.88,4.0,SW,10.4,-,0.00,,Overcast,220,2012-10-14 06:53:00
3:33 AM,64.4,60.8,88,29.87,5.0,SW,11.5,-,N/A,,Overcast,220,2012-10-14 07:33:00
3:53 AM,64.0,61.0,90,29.86,5.0,SW,10.4,18.4,N/A,,Overcast,220,2012-10-14 07:53:00
4:53 AM,64.9,61.0,87,29.86,5.0,SW,10.4,-,N/A,,Overcast,220,2012-10-14 08:53:00
5:53 AM,64.0,61.0,90,29.85,5.0,SSW,8.1,-,N/A,,Overcast,200,2012-10-14 09:53:00
6:53 AM,63.0,60.1,90,29.84,5.0,South,10.4,-,N/A,,Overcast,190,2012-10-14 10:53:00
7:13 AM,62.6,60.8,94,29.83,5.0,SSW,9.2,-,N/A,,Mostly Cloudy,200,2012-10-14 11:13:00
7:53 AM,63.0,60.1,90,29.81,6.0,South,10.4,-,N/A,,Mostly Cloudy,190,2012-10-14 11:53:00
8:53 AM,64.0,60.1,87,29.81,7.0,North,-9999.0,-,N/A,,Overcast,0,2012-10-14 12:53:00
9:07 AM,64.4,60.8,88,29.80,7.0,SSW,17.3,-,N/A,,Overcast,200,2012-10-14 13:07:00
9:53 AM,64.9,60.1,84,29.78,8.0,SSW,17.3,-,N/A,,Overcast,200,2012-10-14 13:53:00
10:53 AM,66.0,59.0,78,29.73,9.0,South,15.0,25.3,N/A,,Overcast,190,2012-10-14 14:53:00
11:53 AM,66.9,57.9,73,29.69,10.0,South,19.6,33.4,N/A,,Mostly Cloudy,190,2012-10-14 15:53:00
12:53 PM,66.9,57.9,73,29.69,10.0,SSW,19.6,28.8,N/A,,Overcast,200,2012-10-14 16:53:00
1:19 PM,68.0,57.2,68,29.69,10.0,SSW,20.7,31.1,N/A,,Overcast,200,2012-10-14 17:19:00
1:53 PM,66.9,57.0,70,29.67,10.0,SSW,19.6,29.9,N/A,,Overcast,200,2012-10-14 17:53:00
2:53 PM,66.9,57.9,73,29.62,10.0,South,13.8,26.5,N/A,,Overcast,190,2012-10-14 18:53:00
4:53 PM,70.0,57.9,65,29.55,10.0,SSW,13.8,23.0,N/A,,Mostly Cloudy,210,2012-10-14 20:53:00
5:02 PM,68.0,59.0,73,29.57,1.8,SSW,17.3,24.2,0.07,Rain,Heavy Rain,210,2012-10-14 21:02:00
5:15 PM,62.6,55.4,77,29.56,10.0,SSW,15.0,29.9,0.10,Rain,Light Rain,210,2012-10-14 21:15:00
5:53 PM,63.0,59.0,87,29.54,10.0,SSW,6.9,-,0.10,,Partly Cloudy,200,2012-10-14 21:53:00
6:53 PM,66.9,59.0,76,29.50,10.0,SSW,12.7,-,N/A,,Mostly Cloudy,200,2012-10-14 22:53:00
7:53 PM,64.9,55.9,73,29.49,10.0,SSW,13.8,23.0,N/A,,Clear,210,2012-10-14 23:53:00
8:53 PM,64.9,57.9,78,29.47,10.0,SSW,11.5,-,N/A,,Overcast,200,2012-10-15 00:53:00
9:53 PM,66.0,54.0,65,29.44,10.0,SW,23.0,35.7,N/A,,Overcast,230,2012-10-15 01:53:00
10:53 PM,62.1,52.0,70,29.47,10.0,SW,21.9,38.0,N/A,,Overcast,230,2012-10-15 02:53:00
11:03 PM,60.8,51.8,72,29.48,10.0,SW,21.9,31.1,N/A,,Overcast,230,2012-10-15 03:03:00
11:53 PM,57.9,51.1,78,29.49,10.0,WSW,16.1,31.1,N/A,,Overcast,240,2012-10-15 03:53:00